x

8574728 - Francis Scott Key Bridge, Md (fskm2) Weather Station

1:30pm - Fri 2nd Dec 2016 All times are EST. -5 hours from GMT.

  • Wind
    17mph, 24mph gusts
  • Air Temp 48°f
  • Sea Pressure 1016mb
  • 8574728 - Francis Scott Key Bridge, Md
  • 8574728 - Francis Scott Key Bridge, Md

More Historic Weather Station data

Upgrade to MSW Pro to gain access to the past 30 days of data for over 8000 Wavebouys and Weather Stations around the globe.

Join Pro

Comparision Forecast

View Surf forecast
   
Fri 12/02 1:30pm 17 24 mph 1016mb 48f
1:24pm 22 24 mph 1015.9mb 48f
1:18pm 21 26 mph 1015.9mb 48f
1:12pm 21 26 mph 1015.9mb 48f
1:06pm 16 20 mph 1016mb 48f
1:00pm 22 25 mph 1015.8mb 48f
12:54pm 16 25 mph 1016mb 48f
12:48pm 20 23 mph 1015.8mb 48f
12:42pm 18 22 mph 1016mb 48f
12:36pm 21 23 mph 1015.9mb 48f
12:30pm 21 23 mph 1015.8mb 48f
12:24pm 18 22 mph 1016.1mb 48f
12:18pm 21 23 mph 1016.1mb 48f
12:12pm 21 23 mph 1016.2mb 47f
12:06pm 20 22 mph 1016.2mb 47f
12:00pm 17 20 mph 1016.3mb 47f
11:54am 21 23 mph 1016.2mb 47f
11:48am 21 24 mph 1016.5mb 47f
11:42am 20 22 mph 1016.4mb 47f
11:36am 20 23 mph 1016.4mb 47f
11:30am 22 25 mph 1016.5mb 47f
11:24am 20 22 mph 1016.7mb 47f
11:18am 23 25 mph 1016.6mb 47f
11:12am 25 29 mph 1016.6mb 46f
11:06am 22 24 mph 1016.9mb 46f
11:00am 25 31 mph 1016.8mb 46f
10:54am 23 26 mph 1016.9mb 46f
10:48am 25 29 mph 1016.9mb 46f
10:42am 26 31 mph 1016.9mb 46f
10:36am 21 29 mph 1017.3mb 46f
10:30am 23 28 mph 1017.4mb 46f
10:24am 21 25 mph 1017.4mb 46f
10:18am 22 30 mph 1017.4mb 46f
10:12am 23 28 mph 1017.4mb 46f
10:06am 21 26 mph 1017.4mb 46f
10:00am 22 24 mph 1017.3mb 46f
9:54am 22 25 mph 1017.3mb 46f
9:48am 17 20 mph 1017.5mb 46f
9:42am 20 22 mph 1017.4mb 46f
9:36am 22 25 mph 1017.3mb 46f
9:30am 21 29 mph 1017.2mb 46f
9:24am 18 23 mph 1017.2mb 46f
9:18am 18 22 mph 1017.1mb 46f
9:12am 21 26 mph 1016.9mb 45f
9:06am 18 23 mph 1017mb 45f
9:00am 17 22 mph 1017mb 45f
8:54am 17 22 mph 1017mb 45f
8:48am 20 23 mph 1016.9mb 45f
8:42am 18 23 mph 1016.9mb 45f
8:36am 16 18 mph 1017mb 45f
8:30am 16 22 mph 1016.9mb 45f
8:24am 15 20 mph 1016.9mb 45f
8:18am 17 21 mph 1016.9mb 45f
8:12am 17 21 mph 1016.9mb 45f
8:06am 16 18 mph 1016.8mb 45f
8:00am 15 17 mph 1016.7mb 45f
7:54am 15 18 mph 1016.6mb 44f
7:48am 17 20 mph 1016.5mb 44f
7:42am 15 17 mph 1016.5mb 44f
7:36am 14 18 mph 1016.5mb 44f
7:30am 14 16 mph 1016.4mb 44f
7:24am 15 17 mph 1016.3mb 44f
7:18am 16 18 mph 1016.3mb 44f
7:12am 17 22 mph 1016.2mb 44f
7:06am 15 16 mph 1016.1mb 44f
7:00am 16 18 mph 1015.9mb 44f
6:54am 16 21 mph 1016mb 44f
6:48am 15 18 mph 1015.9mb 44f
6:42am 14 17 mph 1015.9mb 44f
6:36am 17 21 mph 1015.8mb 44f
6:30am 16 18 mph 1015.8mb 44f
6:24am 16 18 mph 1015.8mb 44f
6:18am 17 21 mph 1015.7mb 45f
6:12am 18 22 mph 1015.6mb 45f
6:06am 18 21 mph 1015.6mb 45f
6:00am 21 24 mph 1015.4mb 45f
5:54am 20 22 mph 1015.3mb 45f
5:48am 20 23 mph 1015.3mb 45f
5:42am 21 24 mph 1015.3mb 45f
5:36am 22 25 mph 1015.1mb 45f
5:30am 21 23 mph 1015.1mb 45f
5:24am 22 24 mph 1015.1mb 45f
5:18am 20 24 mph 1015.1mb 45f
5:12am 20 22 mph 1015.2mb 44f
5:06am 17 21 mph 1015.3mb 44f
5:00am 18 21 mph 1015.3mb 44f
4:54am 17 21 mph 1015.3mb 44f
4:48am 18 22 mph 1015.4mb 44f
4:42am 16 20 mph 1015.5mb 44f
4:36am 14 17 mph 1015.5mb 44f
4:30am 11 14 mph 1015.6mb 44f
4:24am 10 13 mph 1015.7mb 44f
4:18am 13 14 mph 1015.6mb 44f
4:12am 13 15 mph 1015.6mb 44f
4:06am 13 15 mph 1015.4mb 44f
4:00am 13 15 mph 1015.3mb 44f
3:54am 13 14 mph 1015.3mb 44f
3:48am 13 15 mph 1015.3mb 44f
3:42am 14 15 mph 1015.3mb 44f
3:36am 14 15 mph 1015.4mb 44f
3:30am 13 14 mph 1015.4mb 44f
3:24am 13 15 mph 1015.4mb 44f
3:18am 13 14 mph 1015.5mb 44f
3:12am 11 14 mph 1015.4mb 44f
3:06am 11 13 mph 1015.4mb 45f
3:00am 13 15 mph 1015.5mb 44f
2:54am 10 14 mph 1015.5mb 45f
2:48am 14 16 mph 1015.6mb 45f
2:42am 14 16 mph 1015.4mb 45f
2:36am 16 18 mph 1015.2mb 45f
2:30am 17 21 mph 1015.1mb 45f
2:24am 16 20 mph 1015.2mb 45f
2:18am 16 18 mph 1015.2mb 45f
2:12am 13 14 mph 1015.3mb 45f
2:06am 17 21 mph 1015mb 45f
2:00am 17 22 mph 1014.8mb 46f
1:54am 18 22 mph 1014.9mb 46f
1:48am 20 26 mph 1014.9mb 46f
1:42am 18 24 mph 1015.1mb 46f
1:36am 20 23 mph 1014.7mb 46f
1:30am 24 29 mph 1014.5mb 46f
1:24am 18 22 mph 1014.5mb 46f
1:18am 17 21 mph 1014.5mb 46f
1:12am 16 20 mph 1014.6mb 46f
1:06am 16 18 mph 1014.6mb 46f
1:00am 14 16 mph 1014.6mb 46f
12:54am 14 18 mph 1014.6mb 46f
12:48am 13 15 mph 1014.5mb 46f
12:42am 13 14 mph 1014.5mb 46f
12:36am 14 15 mph 1014.6mb 46f
12:30am 11 14 mph 1014.6mb 46f
12:24am 13 14 mph 1014.5mb 46f
12:18am 10 14 mph 1014.5mb 46f
12:12am 11 14 mph 1014.4mb 46f
12:06am 11 15 mph 1014.4mb 46f
12:00am 10 13 mph 1014.4mb 46f
Thu 12/01 11:54pm 10 14 mph 1014.4mb 46f
11:48pm 10 14 mph 1014.2mb 46f
11:42pm 11 15 mph 1014.1mb 46f
11:36pm 11 13 mph 1014.1mb 46f
11:30pm 10 15 mph 1014.2mb 46f
11:24pm 9 13 mph 1014.2mb 46f
11:18pm 13 15 mph 1013.9mb 46f
11:12pm 9 13 mph 1014.1mb 46f
11:06pm 11 15 mph 1014.2mb 46f
11:00pm 11 15 mph 1014.2mb 46f
10:54pm 13 14 mph 1014.1mb 46f
10:48pm 14 20 mph 1013.8mb 46f
10:42pm 14 16 mph 1013.7mb 46f
10:36pm 10 11 mph 1014mb 46f
10:30pm 10 13 mph 1014mb 46f
10:24pm 11 14 mph 1013.9mb 46f
10:18pm 15 17 mph 1013.4mb 46f
10:12pm 15 17 mph 1013.4mb 46f
10:06pm 13 15 mph 1013.5mb 46f
10:00pm 13 15 mph 1013.6mb 46f
9:30pm 13 14 mph 1013.5mb 47f
9:24pm 13 15 mph 1013.5mb 47f
9:18pm 14 17 mph 1013.3mb 47f
9:12pm 13 16 mph 1013.2mb 47f
9:06pm 14 17 mph 1013.2mb 47f
9:00pm 14 16 mph 1013.1mb 47f
8:30pm 18 21 mph 1012.8mb 47f
8:24pm 17 18 mph 1012.8mb 47f
8:18pm 18 22 mph 1012.8mb 47f
8:12pm 21 24 mph 1012.8mb 47f
8:06pm 21 25 mph 1012.9mb 48f
8:00pm 20 25 mph 1012.9mb 48f
7:54pm 21 24 mph 1012.7mb 48f
7:48pm 17 21 mph 1012.7mb 48f
7:42pm 20 22 mph 1012.6mb 48f
7:36pm 23 29 mph 1012.4mb 48f
7:30pm 20 24 mph 1012.5mb 48f
7:24pm 22 25 mph 1012.4mb 49f
7:18pm 24 29 mph 1012.3mb 49f
7:12pm 17 22 mph 1012.5mb 49f
7:06pm 20 22 mph 1012.2mb 49f
7:00pm 22 24 mph 1012mb 49f
6:54pm 22 25 mph 1011.9mb 49f
6:48pm 21 24 mph 1011.8mb 49f
6:42pm 20 22 mph 1011.8mb 49f
6:36pm 15 20 mph 1011.8mb 49f
6:30pm 16 20 mph 1011.7mb 49f
6:24pm 18 21 mph 1011.5mb 49f
6:18pm 25 30 mph 1011mb 50f
6:12pm 22 25 mph 1011.1mb 50f
6:06pm 23 31 mph 1011mb 50f
6:00pm 22 28 mph 1010.9mb 50f
5:54pm 22 25 mph 1010.8mb 50f
5:48pm 22 26 mph 1010.7mb 50f
5:42pm 20 24 mph 1010.6mb 50f
5:36pm 18 22 mph 1010.7mb 50f
5:30pm 17 22 mph 1010.7mb 50f
5:24pm 17 25 mph 1010.7mb 50f
5:18pm 20 22 mph 1010.4mb 50f
5:12pm 17 21 mph 1010.5mb 50f
5:06pm 20 23 mph 1010.2mb 50f
5:00pm 22 25 mph 1009.9mb 50f
4:54pm 24 29 mph 1009.7mb 50f
4:48pm 24 30 mph 1009.6mb 51f
4:42pm 26 33 mph 1009.3mb 51f
4:36pm 29 33 mph 1009.2mb 51f
4:30pm 21 26 mph 1009.4mb 51f
4:24pm 24 29 mph 1009.2mb 51f
4:18pm 28 33 mph 1009mb 51f
4:12pm 24 28 mph 1009.3mb 51f
4:06pm 29 34 mph 1008.8mb 51f
4:00pm 26 30 mph 1009mb 52f
3:54pm 25 32 mph 1008.9mb 52f
3:48pm 24 34 mph 1008.8mb 52f
3:42pm 21 28 mph 1008.9mb 52f
3:36pm 21 24 mph 1008.7mb 52f
3:30pm 24 28 mph 1008.5mb 52f
3:24pm 22 29 mph 1008.5mb 52f
3:18pm 23 26 mph 1008.4mb 53f
3:12pm 20 25 mph 1008.5mb 53f
3:06pm 22 25 mph 1008.3mb 53f
3:00pm 23 25 mph 1008.1mb 53f
2:54pm 20 23 mph 1008.1mb 53f
2:48pm 22 25 mph 1007.9mb 53f
2:42pm 20 24 mph 1008mb 53f
2:36pm 22 26 mph 1007.8mb 53f
2:30pm 21 23 mph 1007.8mb 53f
2:24pm 24 28 mph 1007.6mb 53f
2:18pm 25 29 mph 1007.5mb 53f
2:12pm 22 25 mph 1007.6mb 53f
2:06pm 22 26 mph 1007.5mb 53f
2:00pm 25 30 mph 1007.4mb 53f
1:54pm 21 24 mph 1007.6mb 53f
1:48pm 28 32 mph 1007.3mb 53f
12:54pm 18 23 mph 1007.5mb 53f
12:48pm 20 22 mph 1007.5mb 53f
12:30pm 18 21 mph 1007.7mb 53f
12:24pm 23 25 mph 1007.5mb 53f
12:18pm 23 26 mph 1007.5mb 53f
12:12pm 21 28 mph 1007.5mb 52f
12:06pm 17 21 mph 1007.8mb 53f
12:00pm 20 23 mph 1007.8mb 53f
11:54am 24 28 mph 1007.7mb 53f
11:48am 24 30 mph 1007.5mb 53f
11:42am 21 24 mph 1007.8mb 52f
11:36am 22 26 mph 1007.6mb 52f
11:30am 21 25 mph 1007.7mb 52f
11:24am 20 23 mph 1007.8mb 52f
11:18am 17 21 mph 1007.9mb 52f
11:12am 16 21 mph 1008mb 52f
11:06am 16 18 mph 1008mb 52f
11:00am 17 21 mph 1008mb 52f
10:54am 17 21 mph 1008.1mb 52f
10:48am 16 17 mph 1008.1mb 52f
10:42am 16 20 mph 1008.1mb 52f
10:36am 20 22 mph 1008.1mb 52f
10:30am 16 18 mph 1008.3mb 52f
10:24am 11 14 mph 1008.4mb 52f
10:18am 16 20 mph 1008.3mb 52f
10:12am 17 22 mph 1008.2mb 52f
10:06am 20 22 mph 1008.2mb 52f
10:00am 20 23 mph 1008.2mb 52f
9:54am 18 22 mph 1008.2mb 52f
9:48am 21 25 mph 1008mb 52f
9:42am 22 25 mph 1007.9mb 52f
9:36am 18 21 mph 1008mb 52f
9:30am 21 24 mph 1007.9mb 52f
9:24am 21 25 mph 1007.7mb 52f
9:18am 23 26 mph 1007.5mb 52f
9:12am 22 26 mph 1007.6mb 52f
9:06am 16 22 mph 1007.7mb 52f
9:00am 18 23 mph 1007.5mb 52f
8:54am 18 22 mph 1007.5mb 52f
8:48am 14 20 mph 1007.6mb 52f
8:42am 14 17 mph 1007.5mb 52f
8:36am 13 14 mph 1007.5mb 52f
8:30am 11 14 mph 1007.3mb 52f
8:24am 8 11 mph 1007.3mb 52f
8:18am 7 9 mph 1007.1mb 52f
8:12am 10 11 mph 1007.1mb 52f
8:06am 9 10 mph 1007.1mb 52f
8:00am 9 10 mph 1007mb 52f
7:54am 13 15 mph 1006.8mb 52f
7:48am 13 14 mph 1006.7mb 52f
7:42am 13 14 mph 1006.6mb 52f
7:36am 13 14 mph 1006.5mb 53f
7:30am 8 13 mph 1006.5mb 53f
7:24am 11 16 mph 1006.4mb 53f
7:18am 13 15 mph 1006.3mb 53f
7:12am 14 17 mph 1006.2mb 53f
7:06am 14 16 mph 1006.2mb 53f
7:00am 13 15 mph 1006.2mb 53f
6:54am 15 18 mph 1006mb 53f
6:48am 16 20 mph 1005.9mb 53f
6:42am 18 23 mph 1005.7mb 54f
6:36am 16 18 mph 1005.7mb 54f
6:30am 16 18 mph 1005.6mb 54f
6:24am 15 18 mph 1005.6mb 54f
6:18am 14 16 mph 1005.5mb 54f
6:12am 11 15 mph 1005.4mb 54f
6:06am 13 16 mph 1005.2mb 54f
6:00am 13 15 mph 1005.2mb 54f
5:54am 14 16 mph 1005mb 54f
5:48am 11 14 mph 1005mb 54f
5:42am 13 15 mph 1004.9mb 55f
5:36am 14 18 mph 1004.7mb 55f
5:30am 15 20 mph 1004.6mb 55f
5:24am 13 15 mph 1004.6mb 55f
5:18am 14 16 mph 1004.6mb 55f
5:12am 13 14 mph 1004.5mb 55f
5:06am 14 16 mph 1004.2mb 55f
5:00am 15 17 mph 1004.1mb 55f
4:54am 17 22 mph 1003.9mb 56f
4:48am 17 20 mph 1003.8mb 56f
4:42am 14 17 mph 1003.9mb 56f
4:36am 14 17 mph 1003.8mb 56f
4:30am 15 16 mph 1003.7mb 56f
4:24am 16 20 mph 1003.6mb 56f
4:18am 17 21 mph 1003.5mb 56f
4:12am 21 25 mph 1003.3mb 57f
4:06am 22 26 mph 1003mb 57f
4:00am 25 30 mph 1003mb 57f
3:54am 23 26 mph 1003mb 57f
3:48am 24 29 mph 1003.1mb 58f
3:42am 22 26 mph 1003.1mb 58f
3:36am 20 24 mph 1003.1mb 58f
3:30am 17 22 mph 1003mb 57f
3:24am 16 22 mph 1002.9mb 58f
3:18am 17 22 mph 1002.7mb 58f
3:12am 16 18 mph 1002.6mb 58f
3:06am 15 17 mph 1002.6mb 58f
3:00am 16 20 mph 1002.3mb 58f
2:54am 14 20 mph 1002.2mb 58f
2:48am 14 16 mph 1002.4mb 58f
2:42am 15 17 mph 1002.5mb 58f
2:36am 14 16 mph 1002.5mb 58f
2:30am 14 16 mph 1002.7mb 58f
2:24am 14 23 mph 1002.8mb 59f
2:18am 16 20 mph 1002.7mb 59f
2:12am 14 16 mph 1002mb 58f
2:06am 15 17 mph 1001.9mb 58f
2:00am 16 17 mph 1001.8mb 58f
1:54am 17 21 mph 1001.6mb 58f
1:48am 20 23 mph 1001.1mb 59f
1:42am 21 23 mph 1000.8mb 59f
1:36am 21 28 mph 1000.9mb 60f
1:30am 21 23 mph 1000.9mb 60f
1:24am 22 24 mph 1000.9mb 60f
1:18am 21 24 mph 1000.7mb 60f
1:12am 26 33 mph 1000.4mb 61f
1:06am 21 25 mph 1000.7mb 60f
1:00am 11 14 mph 999.8mb 60f
12:54am 11 14 mph 999.6mb 60f
12:48am 9 13 mph 999.4mb -
12:42am 8 10 mph 999.6mb -
12:36am 7 8 mph 999.7mb -
12:30am 5 6 mph 999.9mb 60f
12:24am 6 7 mph 1000mb 59f
12:18am 6
mph
1000.1mb 58f
12:12am 6 7 mph 1000.1mb 58f
12:06am 6 7 mph 1000.1mb 57f
12:00am 7 9 mph 1000.2mb 58f
Wed 11/30 11:54pm 7 8 mph 1000.3mb 58f
11:48pm 6 7 mph 1000.5mb 57f
11:42pm 8 9 mph 1000.5mb 58f
11:36pm 8 9 mph 1000.6mb 58f
11:30pm 9 11 mph 1000.6mb 58f
11:24pm 10 11 mph 1000.7mb 58f
11:18pm 10 13 mph 1000.9mb 56f
11:12pm 11 14 mph 1000.9mb 58f
11:06pm 14 15 mph 1000.6mb 57f
11:00pm 11 13 mph 1000.5mb 55f
10:54pm 10 11 mph 1000.3mb 56f
10:48pm 8 11 mph 1000.2mb 57f
10:42pm 10 13 mph 999.9mb 58f
10:36pm 9 10 mph 999.9mb 58f
10:30pm 9 10 mph 1000mb 57f
10:24pm 6 7 mph 1000.5mb 58f
10:18pm 3 5 mph 1000.7mb 57f
10:12pm 5 8 mph 1001.3mb 57f
10:06pm 11 18 mph 1001.6mb 58f
10:00pm 21 31 mph 1002.2mb 59f
9:54pm 14 16 mph 1001.6mb 56f
9:48pm 9 10 mph 1001.1mb 57f
9:42pm 10 11 mph 1001.1mb 57f
9:36pm 10 11 mph 1001.1mb 56f
9:30pm 9 10 mph 1001.3mb 56f
9:24pm 10
mph
1001.6mb 56f
9:18pm 10
mph
1001.7mb 56f
9:12pm 10 11 mph 1001.9mb 57f
9:06pm 10
mph
1002.2mb 57f
9:00pm 7 9 mph 1002.6mb 57f
8:54pm 6 9 mph 1002.8mb 58f
8:48pm 7 8 mph 1003mb 58f
8:42pm 3 5 mph 1003mb 60f
8:36pm 3 6 mph 1003.1mb 60f
8:30pm 7 8 mph 1003mb 60f
8:24pm 3 5 mph 1003.4mb 60f
8:18pm 5
mph
1003.2mb 59f
8:12pm 3 6 mph 1003.3mb 59f
8:06pm  -  1 mph 1003.4mb 60f
8:00pm  -  mph 1003.5mb 60f
7:54pm 2 3 mph 1003.7mb 60f
7:48pm 6 7 mph 1003.9mb 60f
7:42pm 8 9 mph 1004mb 60f
7:36pm 9 11 mph 1003.8mb 60f
7:30pm 13 14 mph 1003.8mb 58f
7:24pm 13 15 mph 1004.3mb 59f
7:18pm 13 14 mph 1004.4mb 59f
7:12pm 21 29 mph 1003.9mb 60f
7:06pm 21 26 mph 1004.2mb 60f
7:00pm 10 11 mph 1004.4mb 58f
6:54pm 7 9 mph 1004.4mb 59f
6:48pm 7
mph
1004.1mb 60f
6:42pm 8
mph
1004.2mb 59f
6:36pm 7
mph
1004.3mb 60f
6:00pm 6
mph
1005mb 60f
5:54pm 6
mph
1004.9mb 59f
5:48pm 7 8 mph 1004.7mb 60f
5:42pm 6 8 mph 1005.1mb 59f
5:36pm 6 7 mph 1005.3mb 59f
5:30pm 11 16 mph 1005.5mb 58f
5:24pm 3 5 mph 1005.3mb 56f
5:18pm 3 5 mph 1005.5mb 54f
5:12pm 3 5 mph 1005.5mb 56f
5:06pm 3 6 mph 1005.7mb 58f
5:00pm 3 5 mph 1005.7mb 57f
4:54pm 6
mph
1005.9mb 56f
4:48pm 6 7 mph 1005.6mb 59f
4:42pm 7
mph
1005.2mb 59f
4:36pm 6 7 mph 1005.4mb 58f
4:30pm 6 7 mph 1005.4mb 56f
4:24pm 7
mph
1005.6mb 56f
4:18pm 8
mph
1005.7mb 55f
4:12pm 7 8 mph 1005.6mb 56f
4:06pm 6 7 mph 1005.6mb 57f
4:00pm 6
mph
1005.6mb 59f
3:54pm 3
mph
1005.9mb 59f
3:48pm 5 6 mph 1006mb 59f
3:42pm 5 6 mph 1005.9mb 59f
3:36pm 2 3 mph 1006mb 59f
3:30pm 1 2 mph 1006mb 59f
3:24pm 2
mph
1006.1mb 59f
3:18pm 1
mph
1006.1mb 59f
3:12pm 1 2 mph 1006.3mb 58f
3:06pm 2
mph
1006.5mb 58f
3:00pm 2
mph
1006.4mb 57f
2:54pm 1
mph
1006.3mb 58f
2:48pm 2
mph
1006.2mb 58f
2:42pm 2
mph
1006.1mb 59f
2:36pm 1 2 mph 1006mb 57f
2:30pm 2 3 mph 1005.9mb 57f
2:24pm 1 3 mph 1006.1mb 57f
2:18pm 5
mph
1005.9mb 57f
2:12pm 5 6 mph 1006mb 58f
2:06pm 6
mph
1006.2mb 58f
2:00pm 7
mph
1006.3mb 58f
1:54pm 3
mph
1006.5mb 58f
1:48pm 5 6 mph 1006.6mb 58f
1:42pm 5 7 mph 1006.3mb 58f
1:36pm 3
mph
1006.6mb 58f
1:30pm 3
mph
1006.7mb 57f
1:24pm 3
mph
1006.9mb 57f
1:18pm 2 3 mph 1006.9mb 57f
1:12pm 3
mph
1007mb 57f
1:06pm 3 5 mph 1007.1mb 57f
1:00pm 6
mph
1007.2mb 57f
12:54pm 6 7 mph 1007.2mb 57f
12:48pm 6 7 mph 1007.3mb 56f
12:42pm 7 8 mph 1007.2mb 56f
12:36pm 8 9 mph 1007.3mb 56f
12:30pm 9
mph
1007.2mb 56f
12:24pm 9 11 mph 1007.2mb 56f
12:18pm 10 11 mph 1007.3mb 56f
12:12pm 8 9 mph 1007.3mb 55f
12:06pm 9
mph
1007.5mb 55f
12:00pm 10 11 mph 1007.5mb 54f
11:54am 9 10 mph 1007.8mb 53f
11:48am 8 10 mph 1008mb 54f
11:42am 8 9 mph 1008.3mb 54f
11:36am 10
mph
1008.5mb 58f
11:30am 9 10 mph 1008.6mb 58f
11:24am 7 9 mph 1008.6mb 55f
11:18am 6 7 mph 1008.6mb 54f
11:12am 8 9 mph 1008.6mb 56f
11:06am 11
mph
1008.7mb 56f
11:00am 13 14 mph 1008.8mb 56f
10:54am 14 15 mph 1008.9mb 56f
10:48am 14 15 mph 1009.1mb 56f
10:42am 15 16 mph 1009.1mb 56f
10:36am 15 16 mph 1009.2mb 56f
10:30am 14 16 mph 1009.5mb 56f
10:24am 7 9 mph 1010mb 55f
10:18am 1 2 mph 1010.7mb 55f
10:12am 7 9 mph 1010.3mb 55f
10:06am 7 10 mph 1010.4mb 55f
10:00am  -  3 mph 1010.6mb 54f
9:54am 6 7 mph 1010.5mb 55f
9:48am 8 9 mph 1010.9mb 55f
9:42am 7
mph
1010.8mb 54f
9:36am 8
mph
1010.4mb 55f
9:30am 7 8 mph 1010.6mb 54f
9:24am 8
mph
1010.4mb 54f
9:18am 7 8 mph 1010.4mb 53f
9:12am 6
mph
1010.5mb 53f
9:06am 3 6 mph 1011.2mb 53f
9:00am 8
mph
1010.8mb 54f
8:54am 6
mph
1011mb 54f
8:48am 5 8 mph 1011.2mb 54f
8:42am 9
mph
1010.8mb 54f
8:36am 6 7 mph 1010.6mb 54f
8:30am 6 7 mph 1010.8mb 55f
8:24am 3 5 mph 1010.6mb 55f
8:18am 6 7 mph 1010.6mb 55f
8:12am 10 15 mph 1010.5mb 55f
8:06am  -  2 mph 1011.9mb 53f
8:00am 3 5 mph 1012mb 55f
7:54am 6
mph
1011.9mb 55f
7:48am 7 8 mph 1011.7mb 54f
7:42am 7 8 mph 1011.4mb 55f
7:36am 6 8 mph 1011.6mb 55f
7:30am 8
mph
1011.5mb 54f
7:24am 7 8 mph 1011.7mb 54f
7:18am 6 7 mph 1012.1mb 54f
7:12am 2 3 mph 1012.6mb 54f
7:06am 2 3 mph 1012.6mb 53f
7:00am 5 6 mph 1012.4mb 53f
6:54am 8 9 mph 1011.8mb 53f
6:48am 7 8 mph 1012.3mb 53f
6:42am 3 6 mph 1012.9mb 53f
6:36am 2
mph
1013.3mb 53f
6:30am 2 3 mph 1013.2mb 53f
6:24am 1
mph
1012.9mb 53f
6:18am 3
mph
1012.9mb 54f
6:12am 5 6 mph 1013mb 53f
6:06am 8 10 mph 1012.9mb 53f
6:00am 10 11 mph 1012.8mb 51f
5:54am 8 9 mph 1012.6mb 51f
5:48am 9 10 mph 1012.2mb 51f
5:42am 8 9 mph 1011.9mb 52f
5:36am 6 7 mph 1011.6mb 52f
5:30am 5 6 mph 1011.4mb 54f
5:24am 5 6 mph 1011.6mb 54f
5:18am 6
mph
1011.5mb 54f
5:12am 6
mph
1011.5mb 54f
5:06am 5
mph
1011.5mb 53f
5:00am 5
mph
1011.8mb 53f
4:54am 5
mph
1012mb 53f
4:48am 3 5 mph 1012.1mb 53f
4:42am 3
mph
1012.2mb 53f
4:36am 3
mph
1012.4mb 54f
4:30am 2 3 mph 1012.4mb 54f
4:24am 3 5 mph 1012.3mb 54f
4:18am 3
mph
1012.3mb 54f
4:12am 2
mph
1012.3mb 53f
4:06am 1 2 mph 1012.6mb 53f
4:00am 1 2 mph 1012.6mb 53f
3:54am  -  1 mph 1012.8mb 52f
3:48am  -  1 mph 1013mb 52f
3:42am 1 2 mph 1013mb 51f
3:36am 3 5 mph 1012.9mb 52f
3:30am 5
mph
1012.8mb 53f
3:24am 5
mph
1012.7mb 53f
3:18am 5
mph
1012.8mb 54f
3:12am 5 6 mph 1012.8mb 53f
3:06am 5
mph
1012.7mb 54f
3:00am 3 5 mph 1013.1mb 54f
2:54am 2 3 mph 1013.2mb 54f
2:48am 5
mph
1013.1mb 55f
2:42am 2 3 mph 1013.1mb 54f
2:36am 2
mph
1013.2mb 53f
2:30am 3
mph
1012.9mb 54f
2:24am 5
mph
1012.9mb 55f
2:18am 3 5 mph 1012.8mb 54f
2:12am 5
mph
1012.7mb 54f
2:06am 5 6 mph 1012.7mb 54f
2:00am 6
mph
1012.8mb 54f
1:54am 5
mph
1012.7mb 54f
1:48am 3
mph
1012.7mb 54f
1:42am 1 2 mph 1012.8mb 53f
1:36am 1
mph
1012.7mb 53f
1:30am  -  1 mph 1012.8mb 53f
1:24am 1 2 mph 1012.8mb 53f
1:18am 1 2 mph 1012.8mb 53f
1:12am 1 2 mph 1012.8mb 53f
1:06am 1 2 mph 1012.9mb 53f
1:00am 1 2 mph 1012.9mb 53f
12:54am 3 5 mph 1012.9mb 53f
12:48am 3 5 mph 1012.8mb -
12:42am 3 5 mph 1012.8mb -
12:36am 5
mph
1012.7mb -
12:30am 5
mph
1012.7mb 54f
12:24am 3 5 mph 1012.7mb 54f
12:18am 5
mph
1012.9mb 53f
12:12am 5
mph
1013mb 53f
12:06am  -  1 mph 1012.9mb 55f
12:00am 1 2 mph 1013.2mb 55f
Tue 11/29 11:54pm 2 3 mph 1013.2mb 56f
11:48pm 2
mph
1013.1mb 55f
11:42pm 3
mph
1013mb 56f
11:36pm 3
mph
1013.2mb 56f
11:30pm 3 5 mph 1013mb 57f
11:24pm 6
mph
1012.9mb 56f
11:18pm 6 7 mph 1013mb 56f
11:12pm 7
mph
1013mb 56f
11:06pm 6
mph
1013.1mb 56f
11:00pm 6
mph
1013.3mb 56f
10:54pm 6
mph
1013.1mb 56f
10:48pm 5 6 mph 1012.9mb 55f
10:42pm 3 5 mph 1012.9mb 55f
10:36pm 3 5 mph 1013mb 54f
10:30pm 6
mph
1013mb 55f
10:24pm 5 6 mph 1013mb 54f
10:18pm 5 6 mph 1012.9mb 54f
10:12pm 3 5 mph 1013mb 54f
10:06pm 5
mph
1013mb 55f
10:00pm 5 6 mph 1012.9mb 55f
9:54pm 5
mph
1012.9mb 55f
9:48pm 5
mph
1012.8mb 55f
9:42pm 2 3 mph 1013mb 55f
9:36pm 2 3 mph 1012.9mb 56f
9:30pm 3
mph
- 56f
9:24pm 3
mph
- 56f
9:18pm  -  mph 1012.6mb 56f
9:12pm  -  mph 1012.7mb 55f
9:06pm  -  mph 1012.6mb 55f
9:00pm 1 2 mph 1012.5mb 55f
8:54pm 1 2 mph 1012.3mb 54f
8:48pm 1 2 mph - 54f
8:42pm  -  mph - 55f
8:36pm  -  mph - 55f
8:30pm  -  1 mph 1012.4mb 55f
8:24pm 1 2 mph 1012.4mb 55f
8:18pm 2
mph
1012.3mb 55f
8:12pm 2
mph
1012.3mb 55f
8:06pm 2
mph
1012.2mb 56f
8:00pm 1 2 mph - 55f
7:54pm 1 2 mph - 55f
7:48pm 2 3 mph - 55f
7:42pm  -  3 mph - 56f
7:36pm  -  2 mph - 55f
7:30pm  -  1 mph 1011.7mb 55f
7:24pm  -  2 mph 1011.8mb 56f
7:18pm  -  mph 1011.5mb 56f
7:12pm  -  mph 1011.4mb 55f
7:06pm  -  mph 1011.2mb 55f
7:00pm  -  mph - 55f
6:54pm  -  mph - 55f
6:48pm  -  3 mph 1011.2mb -
6:42pm 2 3 mph 1011mb -
6:36pm 2
mph
1011mb -
6:30pm  -  2 mph - 55f
6:24pm  -  2 mph - 56f
6:18pm  -  1 mph 1011.1mb 56f
6:12pm  -  2 mph 1011mb 56f
6:06pm 2
mph
1010.8mb 56f
6:00pm 3
mph
- 56f
5:54pm 2 3 mph - 55f
5:48pm 2
mph
- 56f
5:42pm 3
mph
- 56f
5:36pm 2
mph
- 56f
5:30pm 2
mph
1010.2mb 55f
5:24pm 2
mph
1010.2mb 55f
5:18pm  -  mph 1010mb 55f
5:12pm  -  mph 1009.9mb 55f
5:06pm  -  mph 1009.8mb 55f
5:00pm 2 3 mph 1010.1mb 55f
4:54pm 2 7 mph 1010.1mb 55f
4:48pm 5 6 mph 1010.1mb 54f
4:42pm 3
mph
1010mb 55f
4:36pm 3 6 mph 1009.9mb 55f
4:30pm  -  2 mph 1009.7mb 56f
4:24pm 2 10 mph 1009.7mb 56f
4:18pm 8 13 mph 1009.8mb 56f
4:12pm 1 3 mph 1009.4mb 56f
4:06pm 3 5 mph 1009.7mb 56f
4:00pm 2 3 mph 1009.6mb 56f
3:54pm 1 3 mph 1009.3mb 55f
3:48pm 3 5 mph 1009.3mb 56f
3:42pm 3
mph
1009.2mb 56f
3:36pm 6
mph
1009.2mb 56f
3:30pm 7
mph
1009mb 57f
3:24pm 6 7 mph 1009.1mb 57f
3:18pm 5 6 mph 1009.2mb 56f
3:12pm 6
mph
1008.9mb 57f
3:06pm 5
mph
1008.9mb 56f
3:00pm 7
mph
1008.9mb 57f
2:54pm 7 8 mph 1008.8mb 57f
2:48pm 7 8 mph 1008.8mb 56f
2:42pm 7 9 mph 1008.8mb 56f
2:36pm 5 6 mph 1008.8mb 55f
2:30pm 6 7 mph 1008.9mb 55f
2:24pm 5 6 mph 1008.9mb 56f
2:18pm 6 7 mph 1008.9mb 56f
2:12pm 3 5 mph 1008.8mb 56f
2:06pm 5 6 mph 1008.7mb 56f
2:00pm 3
mph
1008.8mb 56f
1:54pm 2 3 mph 1008.9mb 55f
1:48pm 2
mph
1009mb 55f
1:42pm 2 3 mph 1009.3mb 55f
1:36pm 5 9 mph 1009.4mb 55f
1:30pm 11 16 mph 1009.6mb 56f
1:24pm 14 15 mph 1009.6mb 56f
1:18pm 9 13 mph 1009.4mb 58f
1:12pm 11 15 mph 1009.1mb 57f
1:06pm 10 13 mph 1008.9mb 57f
1:00pm 11 14 mph 1009mb 57f
12:54pm 11 15 mph 1009mb 56f
12:48pm 11 13 mph 1009.1mb 56f
12:42pm 11 13 mph 1009.2mb 56f
12:36pm 11 14 mph 1009.4mb 56f
12:30pm 10 13 mph 1009.6mb 56f
12:24pm 10 15 mph 1009.7mb 56f
12:18pm 10 11 mph 1009.9mb 56f
12:12pm 9 10 mph 1010mb 56f
12:06pm 9 11 mph 1010.2mb 56f
12:00pm 13 14 mph 1010.1mb 56f
11:54am 14 16 mph 1010.3mb 56f
11:48am 14 15 mph 1010.7mb 56f
11:42am 13 14 mph 1010.7mb 56f
11:36am 14 15 mph 1010.8mb 55f
11:30am 15 16 mph 1010.8mb 56f
11:24am 14 16 mph 1010.9mb 56f
11:18am 15 16 mph 1011.1mb 56f
11:12am 13 14 mph 1011.4mb 56f
11:06am 13 16 mph 1011.6mb 56f
11:00am 14 15 mph 1011.7mb 56f
10:54am 14 17 mph 1011.8mb 56f
10:48am 15 17 mph 1011.8mb 56f
10:42am 16 17 mph 1011.8mb 56f
10:36am 16 18 mph 1011.8mb 56f
10:30am 17 18 mph 1011.9mb 56f
10:24am 18 21 mph 1012mb 56f
10:18am 21 23 mph 1011.9mb 57f
10:12am 20 23 mph 1012.1mb 57f
10:06am 21 25 mph 1012.1mb 57f
10:00am 21 26 mph 1012.2mb 57f
9:54am 20 25 mph 1012.1mb 57f
9:48am 21 23 mph 1012.1mb 57f
9:42am 21 26 mph 1012.2mb 57f
9:36am 20 22 mph 1012.3mb 56f
9:30am 21 24 mph 1012.3mb 56f
9:24am 20 22 mph 1012.4mb 56f
9:18am 21 26 mph 1012.4mb 56f
9:12am 20 23 mph 1012.8mb 56f
9:06am 23 28 mph 1012.6mb 57f
9:00am 21 24 mph 1012.7mb 57f
8:54am 20 26 mph 1013mb 57f
8:48am 23 31 mph 1012.8mb 57f
8:42am 22 28 mph 1012.7mb 57f
8:36am 23 26 mph 1012.4mb 57f
8:30am 22 24 mph 1012.7mb 56f
8:24am 24 28 mph 1012.6mb 56f
8:18am 22 26 mph 1012.6mb 56f
8:12am 21 23 mph 1013.1mb 55f
8:06am 21 24 mph 1013mb 55f
8:00am 22 24 mph 1013.1mb 55f
7:54am 24 28 mph 1013.3mb 56f
7:48am 22 24 mph 1013.2mb 55f
7:42am 23 25 mph 1013.4mb 55f
7:36am 24 28 mph 1013.4mb 55f
7:30am 23 26 mph 1013.5mb 55f
7:24am 24 28 mph 1013.4mb 56f
7:18am 22 25 mph 1013.5mb 55f
7:12am 22 24 mph 1013.5mb 55f
7:06am 21 24 mph 1013.6mb 55f
7:00am 21 23 mph 1013.8mb 55f
6:54am 21 23 mph 1013.9mb 54f
6:48am 21 23 mph 1013.7mb 54f
6:42am 18 21 mph 1013.9mb 54f
6:36am 18 20 mph 1014mb 54f
6:30am 18 20 mph 1014.1mb 54f
6:24am 17 18 mph 1014.2mb 54f
6:18am 16 18 mph 1014.3mb 54f
6:12am 16 18 mph 1014.4mb 54f
6:06am 17 20 mph 1014.4mb 54f
6:00am 17 20 mph 1014.3mb 54f
5:54am 17 20 mph 1014.4mb 54f
5:48am 17 20 mph 1014.4mb 54f
5:42am 17 21 mph 1014.4mb 54f
5:36am 16 18 mph 1014.5mb 54f
5:30am 16 17 mph 1014.6mb 55f
5:24am 15 18 mph 1014.6mb 55f
5:18am 16 17 mph 1014.5mb 55f
5:12am 14 16 mph 1014.7mb 54f
5:06am 13 14 mph 1014.7mb 54f
5:00am 11 15 mph 1014.7mb 54f
4:54am 9 10 mph 1014.7mb 52f
4:48am 10 11 mph 1015mb 51f
4:42am 11 13 mph 1015.1mb 51f
4:36am 10 11 mph 1015.1mb 49f
4:30am 10
mph
1015.2mb 49f
4:24am 9 10 mph 1015.2mb 49f
4:18am 8
mph
1015.5mb 48f
4:12am 7
mph
1015.6mb 48f
4:06am 8 9 mph 1015.2mb 48f
4:00am 8 9 mph 1015.4mb 48f
3:54am 8 9 mph 1015.6mb 48f
3:48am 7 8 mph 1015.8mb 49f
3:42am 8 9 mph 1015.7mb 49f
3:36am 7
mph
1015.7mb 49f
3:30am 6
mph
1016mb 48f
3:24am 5 6 mph 1016.2mb 48f
3:18am 6
mph
1016.3mb 48f
3:12am 6
mph
1016.5mb 48f
3:06am 6
mph
1016.5mb 48f
3:00am 6
mph
1016.3mb 49f
2:54am 6 7 mph 1016.4mb 48f
2:48am 7
mph
1016.5mb 49f
2:42am 5
mph
1016.9mb 49f
2:36am 5 6 mph 1017.1mb 49f
2:30am 3 5 mph 1017mb 49f
2:24am 5 6 mph 1016.9mb 49f
2:18am 5
mph
1017mb 49f
2:12am 7
mph
1016.8mb 49f
2:06am 7 8 mph 1016.9mb 49f
2:00am 8 9 mph 1016.7mb 49f
1:54am 9
mph
1016.8mb 49f
1:48am 9 11 mph 1016.7mb 48f
1:42am 10 11 mph 1016.6mb 48f
1:36am 11 13 mph 1016.6mb 49f
1:30am 11 13 mph 1016.5mb 49f
1:24am 10 13 mph 1016.6mb 49f
1:18am 11 13 mph 1016.6mb 49f
1:12am 14 15 mph 1016.5mb 49f
1:06am 13 14 mph 1016.5mb 49f
1:00am 13 15 mph 1016.6mb 49f
12:54am 14 16 mph 1016.7mb 49f
12:48am 13 15 mph 1016.9mb 49f
12:42am 11 13 mph 1017mb 49f
12:36am 9 10 mph 1017.2mb 49f
12:30am 8 9 mph 1017.6mb 49f
12:24am 8 9 mph 1017.7mb 49f
12:18am 8 9 mph 1017.7mb 49f
12:12am 8 9 mph 1017.8mb 49f
12:06am 8 9 mph 1018mb 49f
12:00am 8 11 mph 1018.1mb 49f
Mon 11/28 11:54pm 7 9 mph 1018.2mb 49f
11:48pm 10 11 mph 1018.1mb 49f
11:42pm 9
mph
1018.2mb 49f
11:36pm 9 10 mph 1018.2mb 49f
11:30pm 8
mph
1018.4mb 49f
11:24pm 7 9 mph 1018.5mb 49f
11:18pm 9 10 mph 1018.5mb 49f
11:12pm 9 11 mph 1018.4mb 49f
11:06pm 7 9 mph 1018.4mb 49f
11:00pm 9 10 mph 1018.8mb 49f
10:54pm 7 9 mph 1018.8mb 49f
10:48pm  -  mph 1018.7mb 49f
10:42pm  -  mph 1018.7mb 49f
10:36pm  -  mph 1018.8mb 49f
10:30pm 9 10 mph 1018.8mb 49f
10:24pm 9 11 mph 1018.8mb 49f
10:18pm 8 10 mph 1018.6mb 49f
10:12pm 8 9 mph 1018.8mb 49f
10:06pm 8 9 mph 1018.8mb 49f
10:00pm 10 11 mph 1018.9mb 49f
9:54pm 9 11 mph 1019mb 49f
9:48pm 9 10 mph 1019mb 49f
9:42pm 10 11 mph 1018.7mb 49f
9:36pm 10 11 mph 1019.1mb 49f
9:30pm 9 10 mph 1019.1mb 49f
9:24pm 9 10 mph 1018.9mb 49f
9:18pm 8 10 mph 1019mb 48f
9:12pm 8 11 mph 1018.8mb 48f
9:06pm 8 10 mph 1019mb 48f
9:00pm  -  mph 1019mb 48f
8:54pm  -  mph 1019.1mb 48f
8:48pm 9 11 mph 1019mb 48f
8:42pm 8 10 mph 1019mb 48f
8:36pm 9 11 mph 1019mb 48f
8:30pm 10 11 mph 1018.9mb 48f
8:24pm 9 13 mph 1018.8mb 48f
8:18pm 10 13 mph 1019.1mb 48f
8:12pm 10 11 mph 1019.3mb 48f
8:06pm 10 11 mph 1019.3mb 48f
8:00pm  -  mph 1019.4mb 48f
7:54pm  -  mph 1019.5mb 48f
7:48pm  -  mph 1019.4mb 48f
7:42pm  -  mph 1019.4mb 48f
7:36pm  -  mph 1019.4mb 48f
7:30pm 9 11 mph 1019.2mb 48f